Time;durP1;ratioP1;P1;durP2;ratioP2;P2;SDS_P1;SDS_P2;PMS_P1;PMS_P2;Temp;Humidity;BMP_temperature;BMP_pressure;BME280_temperature;BME280_humidity;BME280_pressure;Samples;Min_cycle;Max_cycle;Signal;HPM_P1;HPM_P2
2021/08/10 00:01:31;;;;;;;5.27;3.87;;;13.50;99.90;;;;;;5073323;28;20372;-80
2021/08/10 00:03:57;;;;;;;5.60;3.80;;;13.40;99.90;;;;;;5091826;28;20854;-80
2021/08/10 00:06:22;;;;;;;4.67;3.67;;;13.40;99.90;;;;;;5091653;28;20385;-77
2021/08/10 00:08:48;;;;;;;4.23;3.70;;;13.40;99.90;;;;;;5091299;28;20377;-80
2021/08/10 00:11:13;;;;;;;7.35;4.03;;;13.30;99.90;;;;;;5073406;28;20384;-81
2021/08/10 00:13:39;;;;;;;4.87;3.70;;;13.30;99.90;;;;;;5073143;28;20415;-80
2021/08/10 00:16:05;;;;;;;5.32;3.63;;;13.30;99.90;;;;;;5091067;28;20369;-78
2021/08/10 00:18:30;;;;;;;6.32;3.65;;;13.20;99.90;;;;;;5091583;28;20412;-79
2021/08/10 00:20:56;;;;;;;6.00;3.50;;;13.20;99.90;;;;;;5091232;28;20392;-79
2021/08/10 00:23:22;;;;;;;4.07;3.50;;;13.20;99.90;;;;;;5090297;28;20947;-80
2021/08/10 00:25:48;;;;;;;6.63;3.63;;;13.20;99.90;;;;;;5091120;28;20456;-80
2021/08/10 00:28:14;;;;;;;4.07;3.53;;;13.20;99.90;;;;;;5091091;28;20471;-79
2021/08/10 00:30:41;;;;;;;4.55;3.60;;;13.20;99.90;;;;;;5073106;28;20380;-81
2021/08/10 00:33:08;;;;;;;4.38;3.70;;;13.20;99.90;;;;;;5090970;28;20388;-81
2021/08/10 00:35:34;;;;;;;3.90;3.50;;;13.20;99.90;;;;;;5091006;28;20456;-82
2021/08/10 00:37:59;;;;;;;4.23;3.83;;;13.20;99.90;;;;;;5090781;28;20476;-78
2021/08/10 00:40:25;;;;;;;5.72;4.07;;;13.10;99.90;;;;;;5091024;28;20404;-79
2021/08/10 00:42:51;;;;;;;6.22;4.50;;;13.10;99.90;;;;;;5090904;28;21546;-77
2021/08/10 00:45:16;;;;;;;5.85;4.15;;;13.10;99.90;;;;;;5090582;28;20490;-78
2021/08/10 00:47:42;;;;;;;5.17;4.40;;;13.00;99.90;;;;;;5090469;28;20858;-80
2021/08/10 00:50:09;;;;;;;4.43;4.03;;;13.00;99.90;;;;;;5090763;28;20376;-81
2021/08/10 00:52:35;;;;;;;5.75;4.13;;;13.00;99.90;;;;;;5090734;28;20384;-80
2021/08/10 00:55:02;;;;;;;5.67;4.30;;;12.90;99.90;;;;;;5090659;28;20400;-78
2021/08/10 00:57:28;;;;;;;5.72;3.67;;;12.90;99.90;;;;;;5090854;28;20373;-79
2021/08/10 00:59:54;;;;;;;4.40;3.50;;;12.90;99.90;;;;;;5090479;28;20957;-79
2021/08/10 01:02:19;;;;;;;4.13;3.60;;;12.90;99.90;;;;;;5090720;28;20893;-80
2021/08/10 01:04:45;;;;;;;4.90;3.70;;;12.90;99.90;;;;;;5090817;28;20509;-79
2021/08/10 01:07:23;;;;;;;5.40;3.90;;;12.80;99.90;;;;;;5090499;28;20392;-80
2021/08/10 01:10:15;;;;;;;4.82;4.10;;;12.80;99.90;;;;;;5090220;28;20415;-80
2021/08/10 01:13:00;;;;;;;5.78;4.03;;;12.90;99.90;;;;;;5086963;28;20467;-78
2021/08/10 01:15:38;;;;;;;5.85;3.92;;;12.90;99.90;;;;;;5038974;28;20380;-78
2021/08/10 01:18:17;;;;;;;4.97;3.97;;;12.80;99.90;;;;;;5090170;28;20384;-78
2021/08/10 01:20:46;;;;;;;4.30;3.85;;;12.80;99.90;;;;;;5090124;28;21347;-80
2021/08/10 01:23:15;;;;;;;4.93;3.53;;;12.80;99.90;;;;;;5090331;28;20364;-79
2021/08/10 01:25:59;;;;;;;4.35;3.90;;;12.80;99.90;;;;;;5071695;28;20377;-82
2021/08/10 01:28:41;;;;;;;4.57;4.05;;;12.80;99.90;;;;;;5089839;28;20408;-80
2021/08/10 01:31:07;;;;;;;5.50;3.97;;;12.80;99.90;;;;;;5089999;28;20372;-79
2021/08/10 01:33:41;;;;;;;4.30;3.90;;;12.80;99.90;;;;;;5089780;28;20886;-79
2021/08/10 01:36:09;;;;;;;6.57;3.90;;;12.80;99.90;;;;;;5089564;28;20376;-82
2021/08/10 01:38:38;;;;;;;6.10;3.83;;;12.80;99.90;;;;;;5071681;28;20818;-79
2021/08/10 01:41:04;;;;;;;4.47;3.50;;;12.80;99.90;;;;;;5089880;28;20385;-78
2021/08/10 01:43:31;;;;;;;6.07;3.85;;;12.80;99.90;;;;;;5089810;28;20373;-78
2021/08/10 01:45:58;;;;;;;6.85;4.15;;;12.70;99.90;;;;;;5089614;28;20376;-81
2021/08/10 01:48:24;;;;;;;6.87;4.03;;;12.70;99.90;;;;;;5089710;28;20479;-80
2021/08/10 01:50:49;;;;;;;4.43;4.03;;;12.70;99.90;;;;;;5089766;28;20459;-81
2021/08/10 01:53:17;;;;;;;8.00;4.30;;;12.70;99.90;;;;;;5071154;28;20465;-79
2021/08/10 01:55:44;;;;;;;6.23;3.90;;;12.60;99.90;;;;;;5089489;28;20463;-81
2021/08/10 01:58:11;;;;;;;5.10;4.07;;;12.60;99.90;;;;;;5089372;28;20376;-79
2021/08/10 02:00:37;;;;;;;6.27;4.10;;;12.60;99.90;;;;;;5089408;28;20372;-77
2021/08/10 02:03:06;;;;;;;4.72;4.20;;;12.60;99.90;;;;;;5089373;28;20464;-80
2021/08/10 02:05:32;;;;;;;6.03;4.60;;;12.60;99.90;;;;;;5071207;28;20379;-78
2021/08/10 02:07:58;;;;;;;6.07;4.57;;;12.60;99.90;;;;;;5089489;28;20723;-79
2021/08/10 02:10:25;;;;;;;5.40;4.45;;;12.50;99.90;;;;;;5089430;28;20384;-79
2021/08/10 02:12:51;;;;;;;6.07;4.25;;;12.50;99.90;;;;;;5071314;28;20911;-77
2021/08/10 02:15:16;;;;;;;9.15;4.88;;;12.60;99.90;;;;;;5089112;28;20404;-78
2021/08/10 02:17:42;;;;;;;5.13;4.67;;;12.60;99.90;;;;;;5071190;28;20438;-79
2021/08/10 02:20:11;;;;;;;5.57;4.38;;;12.60;99.90;;;;;;5070661;28;20396;-81
2021/08/10 02:22:37;;;;;;;7.03;5.10;;;12.60;99.90;;;;;;5089142;28;20384;-78
2021/08/10 02:25:10;;;;;;;7.28;5.00;;;12.60;99.90;;;;;;5088864;28;20376;-79
2021/08/10 02:27:38;;;;;;;5.60;5.07;;;12.50;99.90;;;;;;5089394;28;20455;-79
2021/08/10 02:30:07;;;;;;;5.93;4.70;;;12.60;99.90;;;;;;5089153;28;20463;-79
2021/08/10 02:32:34;;;;;;;6.10;4.97;;;12.50;99.90;;;;;;5089010;28;20770;-78
2021/08/10 02:35:00;;;;;;;5.97;4.90;;;12.60;99.90;;;;;;5089012;28;20407;-78
2021/08/10 02:37:28;;;;;;;6.00;5.35;;;12.50;99.90;;;;;;5088925;28;20372;-79
2021/08/10 02:39:57;;;;;;;6.03;5.03;;;12.50;99.90;;;;;;5089094;28;20368;-80
2021/08/10 02:42:26;;;;;;;5.95;5.28;;;12.50;99.90;;;;;;5089068;28;20379;-78
2021/08/10 02:44:55;;;;;;;7.07;5.18;;;12.50;99.90;;;;;;5088998;28;20858;-79
2021/08/10 02:47:20;;;;;;;5.88;5.13;;;12.50;99.90;;;;;;5070074;28;20879;-81
2021/08/10 02:49:46;;;;;;;5.00;4.50;;;12.50;99.90;;;;;;5088927;28;20377;-78
2021/08/10 02:52:12;;;;;;;6.38;4.80;;;12.50;99.90;;;;;;5088787;28;20823;-77
2021/08/10 02:54:38;;;;;;;7.97;5.00;;;12.50;99.90;;;;;;5088694;28;20392;-82
2021/08/10 02:57:33;;;;;;;8.05;5.75;;;12.50;99.90;;;;;;5088702;28;20399;-81
2021/08/10 03:00:05;;;;;;;7.32;5.65;;;12.50;99.90;;;;;;5051964;28;20395;-77
2021/08/10 03:02:37;;;;;;;10.23;5.53;;;12.50;99.90;;;;;;5088378;28;20420;-79
2021/08/10 03:05:09;;;;;;;6.53;5.50;;;12.50;99.90;;;;;;5088795;28;20381;-79
2021/08/10 03:07:40;;;;;;;7.50;5.55;;;12.50;99.90;;;;;;5070508;28;20771;-81
2021/08/10 03:10:07;;;;;;;6.88;5.30;;;12.50;99.90;;;;;;5088694;28;20382;-77
2021/08/10 03:12:38;;;;;;;7.28;5.70;;;12.50;99.90;;;;;;5088592;28;20447;-80
2021/08/10 03:15:04;;;;;;;7.10;5.37;;;12.50;99.90;;;;;;5088333;28;20415;-81
2021/08/10 03:17:36;;;;;;;6.85;5.63;;;12.60;99.90;;;;;;5088846;28;20954;-78
2021/08/10 03:20:04;;;;;;;7.15;5.57;;;12.70;99.90;;;;;;5070282;28;20378;-81
2021/08/10 03:22:32;;;;;;;5.55;5.05;;;12.80;99.90;;;;;;5088276;28;20459;-77
2021/08/10 03:24:59;;;;;;;5.73;5.00;;;12.90;99.90;;;;;;5088409;28;20419;-79
2021/08/10 03:27:26;;;;;;;6.85;4.50;;;13.00;99.90;;;;;;5088588;28;20459;-80
2021/08/10 03:29:54;;;;;;;6.88;4.88;;;13.10;99.90;;;;;;5088139;28;20426;-77
2021/08/10 03:32:20;;;;;;;6.63;4.72;;;13.20;99.90;;;;;;5088346;28;20372;-81
2021/08/10 03:34:46;;;;;;;7.15;5.40;;;13.20;99.90;;;;;;5088170;28;20388;-79
2021/08/10 03:37:14;;;;;;;7.65;6.15;;;13.30;99.90;;;;;;5088126;28;20407;-82
2021/08/10 03:39:40;;;;;;;7.82;7.00;;;13.40;99.90;;;;;;5070200;28;20380;-79
2021/08/10 03:42:07;;;;;;;8.95;7.70;;;13.50;99.90;;;;;;5088227;28;20417;-78
2021/08/10 03:44:35;;;;;;;9.25;8.00;;;13.40;99.90;;;;;;5088439;28;20426;-82
2021/08/10 03:47:01;;;;;;;10.90;7.97;;;13.60;99.90;;;;;;5088402;28;20527;-79
2021/08/10 03:49:29;;;;;;;8.50;6.90;;;13.60;99.90;;;;;;5088191;28;20375;-79
2021/08/10 03:51:55;;;;;;;8.18;7.30;;;13.70;99.90;;;;;;5088089;28;20376;-79
2021/08/10 03:54:21;;;;;;;11.13;7.97;;;13.80;99.90;;;;;;5088509;28;20407;-81
2021/08/10 03:56:50;;;;;;;9.30;7.70;;;13.80;99.90;;;;;;5088410;28;20380;-78
2021/08/10 03:59:19;;;;;;;9.40;8.40;;;13.80;99.90;;;;;;5071364;28;21162;-78
2021/08/10 04:01:48;;;;;;;8.43;7.45;;;13.80;99.90;;;;;;5092077;28;20412;-78
2021/08/10 04:04:14;;;;;;;10.93;8.20;;;13.80;99.90;;;;;;5091675;28;20376;-79
2021/08/10 04:06:40;;;;;;;9.15;8.00;;;13.70;99.90;;;;;;5091735;28;20874;-79
2021/08/10 04:09:06;;;;;;;9.10;7.68;;;13.70;99.90;;;;;;5091298;28;20368;-80
2021/08/10 04:11:32;;;;;;;8.80;7.88;;;13.80;99.90;;;;;;5073422;28;20491;-80
2021/08/10 04:14:00;;;;;;;10.03;7.47;;;13.80;99.90;;;;;;5091231;28;20488;-80
2021/08/10 04:16:27;;;;;;;9.05;7.70;;;13.80;99.90;;;;;;5091337;28;20437;-79
2021/08/10 04:18:54;;;;;;;7.13;6.43;;;13.80;99.90;;;;;;5091426;28;20373;-76
2021/08/10 04:21:25;;;;;;;7.90;6.90;;;13.90;99.90;;;;;;5091704;28;20406;-80
2021/08/10 04:23:51;;;;;;;6.55;5.75;;;14.00;99.90;;;;;;5091403;28;20380;-77
2021/08/10 04:26:16;;;;;;;11.60;6.60;;;14.10;99.90;;;;;;5073461;28;20784;-79
2021/08/10 04:28:42;;;;;;;7.53;6.80;;;14.20;99.90;;;;;;5091289;28;20441;-82
2021/08/10 04:31:08;;;;;;;8.10;7.15;;;14.30;99.90;;;;;;5091175;28;20518;-78
2021/08/10 04:33:33;;;;;;;7.75;6.30;;;14.40;99.90;;;;;;5091170;28;20423;-79
2021/08/10 04:35:59;;;;;;;7.27;6.47;;;14.60;99.90;;;;;;5091146;28;20404;-77
2021/08/10 04:38:24;;;;;;;10.90;7.80;;;14.70;99.90;;;;;;5091083;28;20384;-77
2021/08/10 04:40:50;;;;;;;8.07;7.20;;;14.80;99.90;;;;;;5091373;28;20373;-79
2021/08/10 04:43:16;;;;;;;8.45;7.63;;;15.00;99.90;;;;;;5090266;28;20903;-80
2021/08/10 04:45:41;;;;;;;8.67;7.50;;;15.10;99.90;;;;;;5090867;28;20376;-80
2021/08/10 04:48:08;;;;;;;8.35;7.00;;;15.20;99.90;;;;;;5090986;28;20700;-78
2021/08/10 04:50:34;;;;;;;7.60;6.88;;;15.40;99.90;;;;;;5072519;28;20380;-80
2021/08/10 04:52:59;;;;;;;8.18;6.45;;;15.50;99.90;;;;;;5089805;28;20881;-78
2021/08/10 04:55:25;;;;;;;7.68;6.57;;;15.60;99.90;;;;;;5087518;28;20400;-80
2021/08/10 04:57:50;;;;;;;6.47;5.83;;;15.80;99.90;;;;;;5090097;28;20434;-79
2021/08/10 05:00:16;;;;;;;9.65;6.35;;;15.80;99.90;;;;;;5090034;28;20372;-80
2021/08/10 05:02:42;;;;;;;6.70;6.10;;;15.90;99.90;;;;;;5089767;28;20398;-81
2021/08/10 05:05:08;;;;;;;8.80;7.90;;;16.00;99.90;;;;;;5071571;28;20398;-80
2021/08/10 05:07:35;;;;;;;9.18;6.07;;;16.00;99.90;;;;;;5089770;28;20455;-80
2021/08/10 05:10:01;;;;;;;6.47;5.10;;;16.20;99.90;;;;;;5089262;28;20469;-80
2021/08/10 05:12:27;;;;;;;5.88;4.70;;;16.20;99.90;;;;;;5089796;28;20408;-80
2021/08/10 05:14:52;;;;;;;5.80;4.57;;;16.40;99.90;;;;;;5089573;28;20435;-80
2021/08/10 05:17:18;;;;;;;6.07;5.10;;;16.50;99.90;;;;;;5089490;28;20391;-81
2021/08/10 05:19:43;;;;;;;6.43;4.87;;;16.60;99.90;;;;;;5089641;28;20493;-78
2021/08/10 05:22:09;;;;;;;5.30;4.40;;;16.80;99.90;;;;;;5089229;28;20477;-80
2021/08/10 05:24:35;;;;;;;7.40;4.43;;;16.90;99.90;;;;;;5089738;28;20441;-81
2021/08/10 05:27:00;;;;;;;5.10;4.43;;;17.10;99.90;;;;;;5089385;28;20381;-79
2021/08/10 05:29:26;;;;;;;6.17;4.17;;;17.30;99.90;;;;;;5089118;28;20380;-81
2021/08/10 05:31:51;;;;;;;5.22;4.13;;;17.40;99.90;;;;;;5089547;28;20943;-77
2021/08/10 05:34:17;;;;;;;5.90;3.93;;;17.60;99.90;;;;;;5070779;28;20404;-81
2021/08/10 05:36:42;;;;;;;9.18;4.40;;;17.70;99.90;;;;;;5071040;28;21289;-81
2021/08/10 05:39:08;;;;;;;5.90;4.60;;;17.90;99.90;;;;;;5070820;28;21103;-80
2021/08/10 05:41:34;;;;;;;6.65;4.22;;;18.00;99.90;;;;;;5086463;28;20480;-80
2021/08/10 05:43:59;;;;;;;6.07;3.67;;;18.10;99.90;;;;;;5088926;28;20385;-79
2021/08/10 05:46:25;;;;;;;6.43;4.30;;;18.10;99.90;;;;;;5089209;28;20371;-81
2021/08/10 05:48:51;;;;;;;5.90;3.60;;;18.10;99.90;;;;;;5070790;28;20381;-77
2021/08/10 05:51:16;;;;;;;7.93;3.92;;;18.10;99.90;;;;;;5089263;28;20368;-80
2021/08/10 05:53:42;;;;;;;5.63;3.80;;;18.10;99.90;;;;;;5071046;28;20399;-78
2021/08/10 05:56:08;;;;;;;5.70;3.67;;;18.10;99.90;;;;;;5089409;28;20397;-81
2021/08/10 05:58:33;;;;;;;5.90;3.80;;;18.00;99.90;;;;;;5089186;28;20380;-79
2021/08/10 06:00:59;;;;;;;5.07;3.30;;;18.10;99.90;;;;;;5088909;28;20483;-81
2021/08/10 06:03:25;;;;;;;7.00;3.60;;;18.10;99.90;;;;;;5089234;28;20743;-80
2021/08/10 06:05:50;;;;;;;7.20;3.67;;;18.30;99.90;;;;;;5089321;28;20408;-81
2021/08/10 06:08:16;;;;;;;6.67;3.70;;;18.30;99.90;;;;;;5070673;28;20380;-79
2021/08/10 06:10:41;;;;;;;5.07;3.90;;;18.30;99.90;;;;;;5089116;28;20372;-80
2021/08/10 06:13:07;;;;;;;5.60;3.80;;;18.40;99.90;;;;;;5089657;28;20858;-80
2021/08/10 06:15:32;;;;;;;6.87;3.40;;;18.40;99.90;;;;;;5088336;28;20384;-81
2021/08/10 06:17:59;;;;;;;5.72;3.60;;;18.40;99.90;;;;;;5070641;28;20380;-78
2021/08/10 06:20:24;;;;;;;6.10;3.55;;;18.40;99.90;;;;;;5089366;28;20776;-79
2021/08/10 06:22:50;;;;;;;5.40;3.60;;;18.40;99.90;;;;;;5070096;28;20379;-78
2021/08/10 06:25:16;;;;;;;6.00;3.30;;;18.50;99.90;;;;;;5089191;28;20377;-78
2021/08/10 06:27:41;;;;;;;6.43;3.45;;;18.60;99.90;;;;;;5068148;28;20393;-78
2021/08/10 06:30:09;;;;;;;6.83;3.80;;;18.70;99.90;;;;;;5070054;28;21005;-82
2021/08/10 06:32:35;;;;;;;5.75;3.00;;;18.80;99.90;;;;;;5085810;28;20437;-80
2021/08/10 06:35:01;;;;;;;5.88;3.08;;;19.10;99.90;;;;;;5083424;28;20511;-79
2021/08/10 06:37:27;;;;;;;7.53;3.22;;;19.30;99.90;;;;;;5066572;28;20396;-79
2021/08/10 06:39:52;;;;;;;5.88;2.60;;;19.80;99.90;;;;;;5085185;28;20381;-80
2021/08/10 06:42:22;;;;;;;5.23;2.60;;;20.30;99.90;;;;;;5086188;28;20734;-79
2021/08/10 06:44:48;;;;;;;7.15;3.03;;;20.80;99.90;;;;;;5083763;28;20480;-79
2021/08/10 06:47:15;;;;;;;5.65;2.80;;;21.30;99.90;;;;;;5085816;28;20429;-79
2021/08/10 06:49:42;;;;;;;5.55;2.35;;;21.60;99.90;;;;;;5085190;28;20420;-79
2021/08/10 06:52:09;;;;;;;4.00;2.65;;;21.80;99.90;;;;;;5085029;28;20371;-79
2021/08/10 06:54:35;;;;;;;4.43;2.55;;;22.00;99.90;;;;;;5086392;28;20491;-81
2021/08/10 06:57:05;;;;;;;5.75;2.95;;;22.10;99.90;;;;;;5083633;28;20927;-78
2021/08/10 06:59:31;;;;;;;6.32;2.92;;;22.10;99.90;;;;;;5065105;28;20806;-79
2021/08/10 07:01:57;;;;;;;5.53;2.85;;;22.10;99.90;;;;;;5064987;28;20399;-80
2021/08/10 07:04:22;;;;;;;5.63;2.83;;;22.10;99.90;;;;;;5085565;28;20902;-80
2021/08/10 07:06:48;;;;;;;7.20;3.00;;;22.10;99.90;;;;;;5090906;28;20369;-80
2021/08/10 07:09:17;;;;;;;14.03;3.23;;;22.20;99.90;;;;;;5090871;28;20859;-78
2021/08/10 07:11:43;;;;;;;5.85;3.00;;;22.30;99.90;;;;;;5091640;28;20376;-77
2021/08/10 07:14:13;;;;;;;4.43;2.60;;;22.40;99.90;;;;;;5089865;28;20400;-78
2021/08/10 07:16:42;;;;;;;6.50;3.00;;;22.40;99.90;;;;;;5071572;28;21052;-78
2021/08/10 07:19:08;;;;;;;5.68;2.80;;;22.30;99.90;;;;;;5093323;28;20788;-77
2021/08/10 07:21:34;;;;;;;5.37;2.80;;;22.40;99.90;;;;;;5093330;28;20391;-80
2021/08/10 07:24:00;;;;;;;4.18;2.70;;;22.60;99.90;;;;;;5090477;28;20400;-79
2021/08/10 07:26:26;;;;;;;6.20;2.67;;;22.60;99.90;;;;;;5093791;28;20373;-79
2021/08/10 07:28:52;;;;;;;5.90;2.78;;;22.50;99.90;;;;;;5090797;28;20406;-77
2021/08/10 07:31:17;;;;;;;4.22;2.83;;;22.50;99.90;;;;;;5088927;28;20765;-80
2021/08/10 07:33:43;;;;;;;20.13;5.07;;;22.50;99.90;;;;;;5091724;28;20400;-82
2021/08/10 07:36:09;;;;;;;129.75;27.83;;;22.60;99.90;;;;;;5092724;28;20791;-81
2021/08/10 07:38:34;;;;;;;11.13;3.50;;;22.60;99.90;;;;;;5074516;28;20445;-78
2021/08/10 07:41:00;;;;;;;9.00;3.30;;;22.70;99.90;;;;;;5091888;28;20372;-80
2021/08/10 07:43:26;;;;;;;11.35;3.65;;;23.00;99.90;;;;;;5092749;28;20368;-80
2021/08/10 07:45:52;;;;;;;6.38;3.25;;;23.00;99.90;;;;;;5073529;28;20898;-82
2021/08/10 07:48:17;;;;;;;5.18;2.50;;;23.10;99.90;;;;;;5088225;28;20719;-78
2021/08/10 07:50:44;;;;;;;7.57;2.60;;;23.00;99.90;;;;;;5091642;28;20468;-82
2021/08/10 07:53:09;;;;;;;4.13;2.80;;;23.10;99.90;;;;;;5073581;28;20385;-80
2021/08/10 07:55:36;;;;;;;5.15;2.35;;;23.40;99.90;;;;;;5091284;28;20390;-79
2021/08/10 07:58:02;;;;;;;6.13;2.75;;;23.70;99.90;;;;;;5091395;28;20388;-81
2021/08/10 08:00:28;;;;;;;4.35;2.53;;;23.80;99.90;;;;;;5091682;28;20384;-79
2021/08/10 08:02:54;;;;;;;4.88;2.92;;;23.90;99.90;;;;;;5073216;28;20793;-79
2021/08/10 08:05:19;;;;;;;5.80;2.70;;;23.70;99.90;;;;;;5090855;28;20851;-80
2021/08/10 08:07:45;;;;;;;4.83;2.67;;;23.50;99.90;;;;;;5090789;28;20901;-79
2021/08/10 08:10:11;;;;;;;5.60;2.60;;;23.40;99.90;;;;;;5092688;28;20368;-82
2021/08/10 08:12:37;;;;;;;5.77;2.63;;;23.30;99.90;;;;;;5090795;28;20429;-80
2021/08/10 08:15:04;;;;;;;4.40;2.60;;;23.30;99.90;;;;;;5090708;28;20400;-79
2021/08/10 08:17:30;;;;;;;5.45;2.22;;;23.30;99.90;;;;;;5092555;28;20364;-77
2021/08/10 08:19:55;;;;;;;6.40;2.60;;;23.30;99.90;;;;;;5090998;28;20380;-80
2021/08/10 08:22:22;;;;;;;4.47;2.75;;;23.30;99.90;;;;;;5092330;28;20395;-82
2021/08/10 08:24:48;;;;;;;5.38;2.67;;;23.30;99.90;;;;;;5090430;28;20376;-79
2021/08/10 08:27:13;;;;;;;6.75;3.00;;;23.20;99.90;;;;;;5090564;28;20395;-80
2021/08/10 08:29:39;;;;;;;7.25;2.70;;;23.10;99.90;;;;;;5091187;28;20387;-78
2021/08/10 08:32:06;;;;;;;4.50;2.53;;;23.00;99.90;;;;;;5092277;28;20384;-79
2021/08/10 08:34:32;;;;;;;5.40;2.50;;;22.90;99.90;;;;;;5074608;28;20404;-83
2021/08/10 08:36:58;;;;;;;8.13;2.73;;;22.80;99.90;;;;;;5091388;28;20471;-82
2021/08/10 08:39:23;;;;;;;6.53;2.77;;;22.80;99.90;;;;;;5091098;28;21165;-81
2021/08/10 08:41:49;;;;;;;4.15;2.50;;;22.80;99.90;;;;;;5091657;28;20368;-80
2021/08/10 08:44:17;;;;;;;4.63;2.22;;;22.90;99.90;;;;;;5089665;28;20372;-79
2021/08/10 08:46:44;;;;;;;6.87;2.60;;;22.90;99.90;;;;;;5089344;28;20398;-82
2021/08/10 08:49:12;;;;;;;6.57;2.50;;;22.80;99.90;;;;;;5091405;28;20383;-84
2021/08/10 08:51:40;;;;;;;7.00;2.78;;;22.80;99.90;;;;;;5089802;28;20388;-81
2021/08/10 08:54:07;;;;;;;4.63;2.60;;;22.80;99.90;;;;;;5073032;28;20763;-82
2021/08/10 08:56:35;;;;;;;4.05;2.55;;;22.60;99.90;;;;;;5091062;28;20388;-78
2021/08/10 08:59:02;;;;;;;5.65;2.88;;;22.70;99.90;;;;;;5072986;28;20381;-79
2021/08/10 09:01:28;;;;;;;5.00;2.40;;;22.70;99.90;;;;;;5091640;28;20383;-79
2021/08/10 09:03:54;;;;;;;5.05;2.53;;;22.70;99.90;;;;;;5090214;28;20791;-79
2021/08/10 09:06:21;;;;;;;5.07;2.67;;;22.50;99.90;;;;;;5090388;28;20463;-79
2021/08/10 09:08:51;;;;;;;5.15;2.60;;;22.50;99.90;;;;;;5071859;28;20412;-81
2021/08/10 09:11:19;;;;;;;5.28;2.72;;;22.50;99.90;;;;;;5089446;28;20391;-83
2021/08/10 09:13:59;;;;;;;3.60;2.50;;;22.60;99.90;;;;;;5091034;28;20509;-77
2021/08/10 09:16:25;;;;;;;5.32;2.80;;;22.70;99.90;;;;;;5088740;28;20376;-81
2021/08/10 09:18:52;;;;;;;8.15;2.80;;;22.80;99.90;;;;;;5091302;28;20360;-78
2021/08/10 09:21:20;;;;;;;5.25;2.45;;;23.00;99.90;;;;;;5087704;28;20387;-80
2021/08/10 09:23:53;;;;;;;4.20;2.40;;;23.00;99.90;;;;;;5086577;28;20365;-79
2021/08/10 09:26:30;;;;;;;5.85;2.40;;;22.90;99.90;;;;;;5087518;28;20399;-81
2021/08/10 09:28:58;;;;;;;4.85;2.60;;;22.90;99.90;;;;;;5086051;28;20398;-79
2021/08/10 09:31:41;;;;;;;7.45;2.65;;;23.00;99.90;;;;;;5089794;28;20376;-80
2021/08/10 09:34:27;;;;;;;5.05;2.45;;;23.20;99.90;;;;;;5088321;28;20770;-79
2021/08/10 09:36:53;;;;;;;5.40;2.55;;;23.60;99.90;;;;;;5088038;28;20396;-81
2021/08/10 09:39:32;;;;;;;6.18;2.60;;;23.90;99.90;;;;;;5070375;28;20404;-79
2021/08/10 09:42:06;;;;;;;5.97;2.80;;;23.90;99.90;;;;;;5087340;28;20373;-81
2021/08/10 09:44:32;;;;;;;4.72;2.45;;;23.90;99.90;;;;;;5082179;28;20468;-81
2021/08/10 09:46:58;;;;;;;5.38;2.60;;;24.00;99.90;;;;;;5071073;28;20388;-80
2021/08/10 09:49:44;;;;;;;3.53;2.53;;;24.20;99.90;;;;;;5090596;28;20805;-79
2021/08/10 09:52:23;;;;;;;5.10;2.60;;;24.60;99.90;;;;;;5088128;28;20380;-81
2021/08/10 09:54:49;;;;;;;6.35;2.78;;;24.60;99.90;;;;;;5069701;28;20408;-78
2021/08/10 09:57:15;;;;;;;4.50;2.53;;;24.80;99.90;;;;;;5090588;28;20396;-83
2021/08/10 09:59:43;;;;;;;3.92;2.45;;;24.90;99.90;;;;;;5090703;28;20375;-80
2021/08/10 10:02:18;;;;;;;7.22;2.75;;;25.00;99.90;;;;;;5070409;28;20420;-80
2021/08/10 10:04:53;;;;;;;8.20;2.60;;;25.20;99.90;;;;;;5086017;28;20395;-83
2021/08/10 10:07:19;;;;;;;7.00;2.55;;;25.50;99.90;;;;;;5088336;28;20613;-81
2021/08/10 10:09:45;;;;;;;4.15;2.60;;;25.50;99.90;;;;;;5068274;28;20989;-82
2021/08/10 10:12:11;;;;;;;4.70;2.50;;;25.50;99.90;;;;;;5083064;28;20388;-80
2021/08/10 10:14:40;;;;;;;4.07;2.25;;;25.50;99.90;;;;;;5080999;28;20407;-82
2021/08/10 10:17:10;;;;;;;7.68;2.50;;;25.30;99.90;;;;;;5064479;28;20380;-80
2021/08/10 10:19:39;;;;;;;5.15;2.92;;;25.20;99.90;;;;;;5063280;28;21193;-83
2021/08/10 10:22:14;;;;;;;4.75;2.53;;;25.40;99.90;;;;;;5084808;28;20581;-82
2021/08/10 10:24:54;;;;;;;4.85;2.45;;;25.60;99.90;;;;;;5065233;28;20492;-79
2021/08/10 10:27:20;;;;;;;8.45;2.50;;;25.70;99.90;;;;;;5085232;28;20368;-82
2021/08/10 10:29:48;;;;;;;6.43;2.47;;;25.80;99.90;;;;;;5083027;28;20392;-79
2021/08/10 10:32:19;;;;;;;6.80;2.13;;;25.80;99.90;;;;;;5084442;28;20373;-83
2021/08/10 10:34:44;;;;;;;3.28;2.10;;;26.00;99.90;;;;;;5084891;28;20407;-80
2021/08/10 10:37:11;;;;;;;5.50;2.10;;;25.80;99.90;;;;;;5084241;28;20450;-82
2021/08/10 10:39:39;;;;;;;3.88;2.10;;;25.70;99.90;;;;;;5084474;28;20376;-82
2021/08/10 10:42:13;;;;;;;4.03;2.20;;;24.60;99.90;;;;;;5084161;28;20372;-80
2021/08/10 10:44:42;;;;;;;5.10;2.55;;;25.20;99.90;;;;;;5085342;28;20848;-81
2021/08/10 10:47:20;;;;;;;5.30;2.25;;;25.20;99.90;;;;;;5085463;28;20422;-81
2021/08/10 10:49:55;;;;;;;7.07;2.60;;;25.00;99.90;;;;;;5087410;28;20918;-83
2021/08/10 10:52:22;;;;;;;5.60;2.53;;;24.90;99.90;;;;;;5085118;28;20376;-80
2021/08/10 10:54:48;;;;;;;4.77;2.50;;;24.80;99.90;;;;;;5066565;28;20539;-78
2021/08/10 10:57:29;;;;;;;4.85;2.50;;;24.80;99.90;;;;;;5085449;28;20483;-80
2021/08/10 11:00:16;;;;;;;64.18;6.07;;;24.80;99.90;;;;;;5087112;28;20750;-83
2021/08/10 11:02:44;;;;;;;28.48;4.15;;;24.80;99.90;;;;;;5069066;28;20885;-81
2021/08/10 11:05:21;;;;;;;8.63;2.33;;;24.60;99.90;;;;;;5069127;28;20396;-83
2021/08/10 11:07:47;;;;;;;4.82;2.20;;;24.80;99.90;;;;;;5068533;28;20417;-79
2021/08/10 11:10:33;;;;;;;5.57;1.95;;;24.60;99.90;;;;;;5090995;28;20392;-78
2021/08/10 11:12:58;;;;;;;5.47;2.00;;;24.20;99.90;;;;;;5077190;28;20499;-79
2021/08/10 11:15:44;;;;;;;3.97;2.13;;;24.10;99.90;;;;;;5088351;28;20861;-79
2021/08/10 11:18:10;;;;;;;4.07;2.00;;;23.80;99.90;;;;;;5089217;28;20804;-80
2021/08/10 11:20:43;;;;;;;6.72;2.38;;;23.80;99.90;;;;;;5091690;28;20382;-79
2021/08/10 11:23:24;;;;;;;6.25;2.17;;;23.60;99.90;;;;;;5089237;28;20459;-80
2021/08/10 11:26:13;;;;;;;6.18;2.00;;;23.40;99.90;;;;;;5091376;28;20461;-78
2021/08/10 11:28:47;;;;;;;4.68;2.53;;;23.40;99.90;;;;;;5072273;28;20442;-80
2021/08/10 11:31:34;;;;;;;15.10;3.13;;;23.20;99.90;;;;;;5090883;28;20379;-80
2021/08/10 11:33:59;;;;;;;10.03;2.83;;;23.30;99.90;;;;;;5090020;28;20509;-79
2021/08/10 11:36:25;;;;;;;6.57;2.45;;;23.40;99.90;;;;;;5090709;28;20849;-79
2021/08/10 11:38:51;;;;;;;4.18;2.00;;;23.70;99.90;;;;;;5072829;28;20384;-83
2021/08/10 11:41:30;;;;;;;11.10;2.45;;;23.80;99.90;;;;;;5091196;28;20475;-83
2021/08/10 11:44:01;;;;;;;6.25;2.40;;;24.10;99.90;;;;;;5071813;28;20731;-79
2021/08/10 11:46:34;;;;;;;7.40;2.47;;;;;;;;;;5088227;28;20388;-81
2021/08/10 11:49:05;;;;;;;5.75;2.45;;;24.90;99.90;;;;;;5091116;28;20373;-79
2021/08/10 11:51:31;;;;;;;6.73;2.50;;;25.20;99.90;;;;;;5073000;28;20384;-84
2021/08/10 11:54:06;;;;;;;6.15;2.42;;;25.50;99.90;;;;;;5090520;28;20408;-82
2021/08/10 11:56:37;;;;;;;6.15;2.53;;;25.70;99.90;;;;;;5088980;28;20869;-80
2021/08/10 11:59:11;;;;;;;5.30;2.40;;;25.80;99.90;;;;;;5090225;28;20387;-80
2021/08/10 12:01:39;;;;;;;6.85;2.63;;;25.90;99.90;;;;;;5091858;28;20429;-81
2021/08/10 12:04:24;;;;;;;4.78;2.00;;;25.70;99.90;;;;;;5088112;28;20388;-82
2021/08/10 12:06:53;;;;;;;8.95;2.72;;;25.50;99.90;;;;;;5090188;28;20388;-80
2021/08/10 12:09:20;;;;;;;4.65;2.25;;;25.50;99.90;;;;;;5072645;28;20467;-81
2021/08/10 12:11:52;;;;;;;5.97;2.40;;;25.50;99.90;;;;;;5087275;28;20388;-79
2021/08/10 12:14:20;;;;;;;5.85;2.50;;;25.60;99.90;;;;;;5090540;28;20747;-79
2021/08/10 12:17:04;;;;;;;5.17;2.30;;;25.90;99.90;;;;;;5087542;28;20464;-80
2021/08/10 12:19:39;;;;;;;4.43;1.90;;;26.00;99.90;;;;;;5087027;28;20384;-83
2021/08/10 12:22:07;;;;;;;6.70;2.13;;;25.90;99.90;;;;;;5069065;28;20395;-81
2021/08/10 12:24:41;;;;;;;6.80;2.20;;;25.80;99.90;;;;;;5072337;28;20901;-80
2021/08/10 12:27:09;;;;;;;6.72;2.40;;;25.80;99.90;;;;;;5087883;28;20392;-81
2021/08/10 12:29:39;;;;;;;6.95;2.30;;;25.70;99.90;;;;;;5090526;28;20460;-80
2021/08/10 12:32:07;;;;;;;5.43;2.20;;;25.80;99.90;;;;;;5087429;28;20877;-79
2021/08/10 12:34:36;;;;;;;4.97;2.17;;;25.70;99.90;;;;;;5091198;28;20897;-81
2021/08/10 12:37:02;;;;;;;8.30;2.40;;;25.70;99.90;;;;;;5090788;28;20450;-80
2021/08/10 12:39:28;;;;;;;7.38;2.40;;;25.60;99.90;;;;;;5088803;28;20402;-80
2021/08/10 12:41:58;;;;;;;18.02;3.53;;;25.60;99.90;;;;;;5091354;28;20395;-81
2021/08/10 12:44:26;;;;;;;5.63;2.70;;;25.60;99.90;;;;;;5073073;28;20384;-78
2021/08/10 12:46:56;;;;;;;4.30;2.33;;;25.50;99.90;;;;;;5088859;28;20419;-80
2021/08/10 12:49:43;;;;;;;4.10;2.45;;;25.60;99.90;;;;;;5067088;28;20462;-78
2021/08/10 12:52:11;;;;;;;6.82;2.40;;;25.50;99.90;;;;;;5081221;28;20387;-82